WetterOnline ( https://www.wetteronline.de )

Wetter aktuell Harz

Aktuelles Wetter: Wernigerode (240m)

6-stündlich | Neueste Meldungen
Ortszeit Temperatur Wetter
Sa, 13.07. 20:00 20.3° C leicht bewölkt
Sa, 13.07. 14:00 20.3° C bewölkt
Sa, 13.07. 8:00 14.3° C bedeckt
Sa, 13.07. 2:00 14.4° C bedeckt
Fr, 12.07. 20:00 23.6° C bewölkt
Fr, 12.07. 14:00 20.9° C bewölkt
Fr, 12.07. 8:00 17.1° C bewölkt
Fr, 12.07. 2:00 17.2° C bewölkt
Ortszeit Temperatur Wetter
Sa, 13.07. 20:00 20.3° C leicht bewölkt
Sa, 13.07. 19:50 20.3° C leicht bewölkt
Sa, 13.07. 19:40 20.3° C leicht bewölkt
Sa, 13.07. 19:30 20.7° C wolkig
Sa, 13.07. 19:20 20.7° C wolkig
Sa, 13.07. 19:10 20.1° C bedeckt
Sa, 13.07. 19:00 20.6° C bewölkt
Sa, 13.07. 18:30 20.2° C bewölkt
Sa, 13.07. 18:00 21.6° C bewölkt
Sa, 13.07. 17:30 21.6° C bewölkt
Sa, 13.07. 17:00 20.9° C bewölkt
Ortszeit Relative Feuchte Sichtweite
Sa, 13.07. 20:00 48% >70 km
Sa, 13.07. 14:00 52% 65 km
Sa, 13.07. 8:00 70% >70 km
Sa, 13.07. 2:00 78% >70 km
Fr, 12.07. 20:00 73% 45 km
Fr, 12.07. 14:00 83% 40 km
Fr, 12.07. 8:00 91% 35 km
Fr, 12.07. 2:00 86% 40 km
Ortszeit Relative Feuchte Sichtweite
Sa, 13.07. 20:00 48% >70 km
Sa, 13.07. 19:50 48% -
Sa, 13.07. 19:40 47% -
Sa, 13.07. 19:30 47% >70 km
Sa, 13.07. 19:20 47% -
Sa, 13.07. 19:10 47% -
Sa, 13.07. 19:00 46% 45 km
Sa, 13.07. 18:30 47% >70 km
Sa, 13.07. 18:00 46% 60 km
Sa, 13.07. 17:30 45% >70 km
Sa, 13.07. 17:00 46% >70 km
Ortszeit Niederschlagsmenge Niederschlagsart
Sa, 13.07. 20:00 0.0 l/m2 in 12 Std. -
Sa, 13.07. 14:00 0.0 l/m2 in 6 Std. -
Sa, 13.07. 8:00 0.3 l/m2 in 12 Std. -
Sa, 13.07. 2:00 0.3 l/m2 in 6 Std. Regen
Fr, 12.07. 20:00 7 l/m2 in 12 Std. -
Fr, 12.07. 14:00 7 l/m2 in 6 Std. Regen
Fr, 12.07. 8:00 4 l/m2 in 12 Std. Regen
Fr, 12.07. 2:00 0.0 l/m2 in 6 Std. -
Ortszeit Niederschlagsmenge Niederschlagsart
Sa, 13.07. 20:00 0.0 l/m2 in 1 Std. -
Sa, 13.07. 19:50 keine Meldung -
Sa, 13.07. 19:40 keine Meldung -
Sa, 13.07. 19:30 0.0 l/m2 in 30 Min -
Sa, 13.07. 19:20 keine Meldung -
Sa, 13.07. 19:10 keine Meldung -
Sa, 13.07. 19:00 0.0 l/m2 in 1 Std. -
Sa, 13.07. 18:30 0.0 l/m2 in 30 Min -
Sa, 13.07. 18:00 0.0 l/m2 in 1 Std. -
Sa, 13.07. 17:30 0.0 l/m2 in 30 Min -
Sa, 13.07. 17:00 0.0 l/m2 in 1 Std. -
Ortszeit Stärke Spitze Richtung
km/h Bft. km/h Grad Sektor
Sa, 13.07. 20:00 11 2 40 280° W
Sa, 13.07. 14:00 15 3 31 220° SW
Sa, 13.07. 8:00 11 2 36 280° W
Sa, 13.07. 2:00 9 2 37 330° NW
Fr, 12.07. 20:00 7 2 32 190° S
Fr, 12.07. 14:00 11 2 20 110° O
Fr, 12.07. 8:00 4 1 11 150° SO
Fr, 12.07. 2:00 4 1 11 190° S
Ortszeit Stärke Spitze Richtung
km/h Bft. km/h Grad Sektor
Sa, 13.07. 20:00 11 2 29 280° W
Sa, 13.07. 19:50 11 2 - 280° W
Sa, 13.07. 19:40 13 3 - 290° W
Sa, 13.07. 19:30 13 3 28 240° SW
Sa, 13.07. 19:20 13 3 - 240° SW
Sa, 13.07. 19:10 17 3 - 250° W
Sa, 13.07. 19:00 11 2 25 260° W
Sa, 13.07. 18:30 11 2 25 250° W
Sa, 13.07. 18:00 13 3 28 260° W
Sa, 13.07. 17:30 13 3 28 240° SW
Sa, 13.07. 17:00 13 3 33 190° S
Ortszeit Untergrenze Bedeckung Gattung
total tief tief mittel hoch
Sa, 13.07. 20:00 1500 m 3/8 3/8 - - -
Sa, 13.07. 14:00 1410 m 7/8 7/8 - - -
Sa, 13.07. 8:00 780 m 8/8 8/8 - - -
Sa, 13.07. 2:00 4800 m 8/8 8/8 - - -
Fr, 12.07. 20:00 1200 m 8/8 7/8 - - -
Fr, 12.07. 14:00 300 m 7/8 7/8 - - -
Fr, 12.07. 8:00 1500 m 8/8 5/8 - - -
Fr, 12.07. 2:00 2400 m 8/8 7/8 - - -
Ortszeit Bedeckungsgrad in Achtel und Wolkenuntergrenze
Sa, 13.07. 20:00 1(1500m) 3(2100m)
Sa, 13.07. 19:50 1(1500m) 3(2100m)
Sa, 13.07. 19:40 3
Sa, 13.07. 19:30 2(1500m) 6(2100m)
Sa, 13.07. 19:20 2(1500m) 6(2100m)
Sa, 13.07. 19:10 8
Sa, 13.07. 19:00 7(1800m)
Sa, 13.07. 18:30 7(1800m)
Sa, 13.07. 18:00 7(1500m) 7(1800m)
Sa, 13.07. 17:30 6(1500m) 7(1800m)
Sa, 13.07. 17:00 7(1500m)
Ortszeit Luftdruck NN (hPa) Tendenz (hPa in 3 Std.)
Sa, 13.07. 20:00 1012 + 0,5
Sa, 13.07. 14:00 1012 0,0
Sa, 13.07. 8:00 1012 + 1,3
Sa, 13.07. 2:00 1010 + 0,8
Fr, 12.07. 20:00 1006 - 0,9
Fr, 12.07. 14:00 1009 - 2,6
Fr, 12.07. 8:00 1014 - 1,3
Fr, 12.07. 2:00 1016 - 0,7
Ortszeit Luftdruck NN (hPa) Tendenz (hPa in 3 Std.)
Sa, 13.07. 20:00 1012 + 0,5
Sa, 13.07. 19:50 1012 keine Meldung
Sa, 13.07. 19:40 1012 keine Meldung
Sa, 13.07. 19:30 1012 + 0,2
Sa, 13.07. 19:20 1012 keine Meldung
Sa, 13.07. 19:10 1012 keine Meldung
Sa, 13.07. 19:00 1012 + 0,3
Sa, 13.07. 18:30 1012 + 0,3
Sa, 13.07. 18:00 1012 + 0,1
Sa, 13.07. 17:30 1012 + 0,2
Sa, 13.07. 17:00 1012 + 0,1
Ortszeit Schneehöhe (cm)
Sa, 13.07. 20:00 0
Sa, 13.07. 14:00 0
Sa, 13.07. 8:00 0
Sa, 13.07. 2:00 0
Fr, 12.07. 20:00 0
Fr, 12.07. 14:00 0
Fr, 12.07. 8:00 0
Fr, 12.07. 2:00 0
Ortszeit Schneehöhe (cm)
Sa, 13.07. 20:00 0
Sa, 13.07. 19:50 0
Sa, 13.07. 19:40 -
Sa, 13.07. 19:30 0
Sa, 13.07. 19:20 0
Sa, 13.07. 19:10 -
Sa, 13.07. 19:00 0
Sa, 13.07. 18:30 0
Sa, 13.07. 18:00 0
Sa, 13.07. 17:30 0
Sa, 13.07. 17:00 0
Link zu dieser Seite / Seite empfehlen

Das Wetter in ...